Huvudsida
METAR-TAF:

METAR-TAF

Flygplatser :

Prag-Václav Havels flygplats

Prag, Tjeckien

latitud: 50-06N, longitud: 014-15E, höjd: 365 m

Aktuellt väderrapport

Denna rapport gjordes för 5 minuter sedan, klockan 10:00 UTC
Vind 5 kt från nordväst, varierande mellan sydväst och nord
Temperatur 6°C
Fuktighet 49%
Tryck 1034 hPa
Sikt 10 km eller mer
Spridda moln på en höjd av 4500 ft

METAR: LKPR 201000Z 31005KT 220V350 9999 SCT045 06/M04 Q1034 NOSIG

Tid: 11:05 (10:05 UTC)

Väderprognos

Denna rapport gjordes för 5 timmar och 5 minuter sedan, klockan 05:00 UTC
Prognos gäller från 20 kl. 06 UTC till 21 kl. 12 UTC
Vind 6 kt från väst/sydväst
Sikt 10 km eller mer
Inga moln under 1 500 m eller inga cumulonimbus
Temporärt
från 20 kl. 12 UTC till 20 kl. 21 UTC
Vind 2 kt varierande vindriktning

TAF: LKPR 200500Z 2006/2112 25006KT CAVOK TEMPO 2012/2021 VRB02KT

Aktuella väderrapporter och prognoser från 4000 flygplatser (METAR- och TAF-rapporter).

De tillgängliga stationerna syns som gula och röda prickar på kartan.

För musen över prickarna för att se namnen på stationerna.

Klicka sedan för att få väderrapporter och prognoser.

För att ändra kartan: Klicka på de gröna knapparna med ett svart kors på för att zooma in; den gröna knappen med ett streck på för att zooma ut; eller på de gröna pilarna för angränsande kartor.


METAR-TAF: